sensor_id;sensor_type;location;lat;lon;timestamp;P1;durP1;ratioP1;P2;durP2;ratioP2
60032;SDS011;45905;50.570;10.428;2024-01-27T00:00:51;1.80;;;1.13;;
60032;SDS011;45905;50.570;10.428;2024-01-27T00:03:19;1.17;;;0.70;;
60032;SDS011;45905;50.570;10.428;2024-01-27T00:05:46;0.83;;;0.83;;
60032;SDS011;45905;50.570;10.428;2024-01-27T00:08:14;5.33;;;1.57;;
60032;SDS011;45905;50.570;10.428;2024-01-27T00:10:41;2.67;;;0.83;;
60032;SDS011;45905;50.570;10.428;2024-01-27T00:13:08;1.37;;;1.27;;
60032;SDS011;45905;50.570;10.428;2024-01-27T00:15:35;0.70;;;0.40;;
60032;SDS011;45905;50.570;10.428;2024-01-27T00:18:03;0.80;;;0.67;;
60032;SDS011;45905;50.570;10.428;2024-01-27T00:20:30;0.70;;;0.63;;
60032;SDS011;45905;50.570;10.428;2024-01-27T00:22:58;1.63;;;0.60;;
60032;SDS011;45905;50.570;10.428;2024-01-27T00:25:25;4.83;;;1.40;;
60032;SDS011;45905;50.570;10.428;2024-01-27T00:27:52;7.40;;;1.67;;
60032;SDS011;45905;50.570;10.428;2024-01-27T00:30:20;1.77;;;1.63;;
60032;SDS011;45905;50.570;10.428;2024-01-27T00:32:47;1.60;;;1.27;;
60032;SDS011;45905;50.570;10.428;2024-01-27T00:35:15;2.20;;;1.27;;
60032;SDS011;45905;50.570;10.428;2024-01-27T00:37:42;1.93;;;0.97;;
60032;SDS011;45905;50.570;10.428;2024-01-27T00:40:10;4.90;;;1.50;;
60032;SDS011;45905;50.570;10.428;2024-01-27T00:42:37;1.03;;;0.93;;
60032;SDS011;45905;50.570;10.428;2024-01-27T00:45:05;3.30;;;1.80;;
60032;SDS011;45905;50.570;10.428;2024-01-27T00:47:33;1.33;;;1.07;;
60032;SDS011;45905;50.570;10.428;2024-01-27T00:50:01;0.70;;;0.50;;
60032;SDS011;45905;50.570;10.428;2024-01-27T00:52:28;1.17;;;1.00;;
60032;SDS011;45905;50.570;10.428;2024-01-27T00:54:56;2.90;;;2.17;;
60032;SDS011;45905;50.570;10.428;2024-01-27T00:57:23;4.43;;;1.27;;
60032;SDS011;45905;50.570;10.428;2024-01-27T00:59:51;0.90;;;0.77;;
60032;SDS011;45905;50.570;10.428;2024-01-27T01:02:18;0.70;;;0.60;;
60032;SDS011;45905;50.570;10.428;2024-01-27T01:04:45;1.20;;;1.10;;
60032;SDS011;45905;50.570;10.428;2024-01-27T01:07:14;8.93;;;1.23;;
60032;SDS011;45905;50.570;10.428;2024-01-27T01:09:42;1.23;;;1.13;;
60032;SDS011;45905;50.570;10.428;2024-01-27T01:12:10;5.43;;;2.50;;
60032;SDS011;45905;50.570;10.428;2024-01-27T01:14:37;4.40;;;1.90;;
60032;SDS011;45905;50.570;10.428;2024-01-27T01:17:06;2.50;;;1.07;;
60032;SDS011;45905;50.570;10.428;2024-01-27T01:19:33;0.87;;;0.63;;
60032;SDS011;45905;50.570;10.428;2024-01-27T01:22:01;1.10;;;0.90;;
60032;SDS011;45905;50.570;10.428;2024-01-27T01:24:29;0.90;;;0.90;;
60032;SDS011;45905;50.570;10.428;2024-01-27T01:26:56;0.80;;;0.80;;
60032;SDS011;45905;50.570;10.428;2024-01-27T01:29:24;1.20;;;1.10;;
60032;SDS011;45905;50.570;10.428;2024-01-27T01:31:51;0.70;;;0.40;;
60032;SDS011;45905;50.570;10.428;2024-01-27T01:34:19;0.70;;;0.70;;
60032;SDS011;45905;50.570;10.428;2024-01-27T01:36:47;1.10;;;0.87;;
60032;SDS011;45905;50.570;10.428;2024-01-27T01:39:15;1.23;;;0.50;;
60032;SDS011;45905;50.570;10.428;2024-01-27T01:41:42;0.97;;;0.77;;
60032;SDS011;45905;50.570;10.428;2024-01-27T01:44:09;1.57;;;0.80;;
60032;SDS011;45905;50.570;10.428;2024-01-27T01:46:37;1.40;;;0.53;;
60032;SDS011;45905;50.570;10.428;2024-01-27T01:49:04;1.37;;;1.27;;
60032;SDS011;45905;50.570;10.428;2024-01-27T01:51:32;1.40;;;0.67;;
60032;SDS011;45905;50.570;10.428;2024-01-27T01:54:00;1.57;;;0.90;;
60032;SDS011;45905;50.570;10.428;2024-01-27T01:56:28;3.90;;;0.80;;
60032;SDS011;45905;50.570;10.428;2024-01-27T01:58:56;3.43;;;2.73;;
60032;SDS011;45905;50.570;10.428;2024-01-27T02:01:24;15.03;;;1.80;;
60032;SDS011;45905;50.570;10.428;2024-01-27T02:03:52;2.30;;;2.17;;
60032;SDS011;45905;50.570;10.428;2024-01-27T02:06:23;0.80;;;0.53;;
60032;SDS011;45905;50.570;10.428;2024-01-27T02:08:51;1.50;;;1.40;;
60032;SDS011;45905;50.570;10.428;2024-01-27T02:11:21;3.87;;;1.27;;
60032;SDS011;45905;50.570;10.428;2024-01-27T02:13:48;2.20;;;0.80;;
60032;SDS011;45905;50.570;10.428;2024-01-27T02:16:15;4.40;;;1.30;;
60032;SDS011;45905;50.570;10.428;2024-01-27T02:18:44;2.70;;;1.90;;
60032;SDS011;45905;50.570;10.428;2024-01-27T02:21:12;1.00;;;0.73;;
60032;SDS011;45905;50.570;10.428;2024-01-27T02:23:42;1.27;;;0.80;;
60032;SDS011;45905;50.570;10.428;2024-01-27T02:26:10;0.90;;;0.70;;
60032;SDS011;45905;50.570;10.428;2024-01-27T02:28:37;1.40;;;1.30;;
60032;SDS011;45905;50.570;10.428;2024-01-27T02:31:04;1.90;;;1.27;;
60032;SDS011;45905;50.570;10.428;2024-01-27T02:33:32;1.10;;;0.80;;
60032;SDS011;45905;50.570;10.428;2024-01-27T02:36:00;0.70;;;0.63;;
60032;SDS011;45905;50.570;10.428;2024-01-27T02:38:27;0.80;;;0.70;;
60032;SDS011;45905;50.570;10.428;2024-01-27T02:40:54;0.80;;;0.77;;
60032;SDS011;45905;50.570;10.428;2024-01-27T02:43:22;6.53;;;1.53;;
60032;SDS011;45905;50.570;10.428;2024-01-27T02:45:49;1.10;;;1.00;;
60032;SDS011;45905;50.570;10.428;2024-01-27T02:48:16;0.80;;;0.80;;
60032;SDS011;45905;50.570;10.428;2024-01-27T02:50:44;0.77;;;0.57;;
60032;SDS011;45905;50.570;10.428;2024-01-27T02:53:11;0.70;;;0.60;;
60032;SDS011;45905;50.570;10.428;2024-01-27T02:55:38;1.23;;;0.77;;
60032;SDS011;45905;50.570;10.428;2024-01-27T02:58:06;1.30;;;1.00;;
60032;SDS011;45905;50.570;10.428;2024-01-27T03:00:34;2.17;;;1.00;;
60032;SDS011;45905;50.570;10.428;2024-01-27T03:03:01;0.70;;;0.50;;
60032;SDS011;45905;50.570;10.428;2024-01-27T03:05:29;0.70;;;0.60;;
60032;SDS011;45905;50.570;10.428;2024-01-27T03:07:56;11.90;;;1.40;;
60032;SDS011;45905;50.570;10.428;2024-01-27T03:10:24;2.03;;;1.13;;
60032;SDS011;45905;50.570;10.428;2024-01-27T03:12:51;2.70;;;0.73;;
60032;SDS011;45905;50.570;10.428;2024-01-27T03:15:19;0.80;;;0.50;;
60032;SDS011;45905;50.570;10.428;2024-01-27T03:17:46;0.70;;;0.50;;
60032;SDS011;45905;50.570;10.428;2024-01-27T03:20:14;0.70;;;0.60;;
60032;SDS011;45905;50.570;10.428;2024-01-27T03:22:41;4.67;;;3.30;;
60032;SDS011;45905;50.570;10.428;2024-01-27T03:25:09;4.73;;;2.37;;
60032;SDS011;45905;50.570;10.428;2024-01-27T03:27:40;1.93;;;0.73;;
60032;SDS011;45905;50.570;10.428;2024-01-27T03:30:07;0.60;;;0.40;;
60032;SDS011;45905;50.570;10.428;2024-01-27T03:32:36;5.57;;;1.13;;
60032;SDS011;45905;50.570;10.428;2024-01-27T03:35:04;1.33;;;0.93;;
60032;SDS011;45905;50.570;10.428;2024-01-27T03:37:32;0.70;;;0.67;;
60032;SDS011;45905;50.570;10.428;2024-01-27T03:40:01;3.20;;;2.67;;
60032;SDS011;45905;50.570;10.428;2024-01-27T03:42:28;2.53;;;2.43;;
60032;SDS011;45905;50.570;10.428;2024-01-27T03:44:56;0.70;;;0.57;;
60032;SDS011;45905;50.570;10.428;2024-01-27T03:47:23;0.90;;;0.90;;
60032;SDS011;45905;50.570;10.428;2024-01-27T03:49:50;3.63;;;0.87;;
60032;SDS011;45905;50.570;10.428;2024-01-27T03:52:19;0.90;;;0.63;;
60032;SDS011;45905;50.570;10.428;2024-01-27T03:54:46;0.90;;;0.80;;
60032;SDS011;45905;50.570;10.428;2024-01-27T03:57:14;4.00;;;0.70;;
60032;SDS011;45905;50.570;10.428;2024-01-27T03:59:42;0.70;;;0.50;;
60032;SDS011;45905;50.570;10.428;2024-01-27T04:02:09;0.93;;;0.83;;
60032;SDS011;45905;50.570;10.428;2024-01-27T04:04:37;1.00;;;0.90;;
60032;SDS011;45905;50.570;10.428;2024-01-27T04:07:04;14.87;;;1.57;;
60032;SDS011;45905;50.570;10.428;2024-01-27T04:09:33;0.70;;;0.60;;
60032;SDS011;45905;50.570;10.428;2024-01-27T04:12:00;0.70;;;0.57;;
60032;SDS011;45905;50.570;10.428;2024-01-27T04:14:27;0.70;;;0.60;;
60032;SDS011;45905;50.570;10.428;2024-01-27T04:16:55;0.70;;;0.60;;
60032;SDS011;45905;50.570;10.428;2024-01-27T04:19:23;2.03;;;1.50;;
60032;SDS011;45905;50.570;10.428;2024-01-27T04:21:50;1.07;;;0.63;;
60032;SDS011;45905;50.570;10.428;2024-01-27T04:24:18;2.20;;;1.03;;
60032;SDS011;45905;50.570;10.428;2024-01-27T04:26:45;1.67;;;1.57;;
60032;SDS011;45905;50.570;10.428;2024-01-27T04:29:13;0.60;;;0.50;;
60032;SDS011;45905;50.570;10.428;2024-01-27T04:31:41;0.77;;;0.43;;
60032;SDS011;45905;50.570;10.428;2024-01-27T04:34:09;1.23;;;0.93;;
60032;SDS011;45905;50.570;10.428;2024-01-27T04:36:37;0.67;;;0.47;;
60032;SDS011;45905;50.570;10.428;2024-01-27T04:39:05;0.70;;;0.60;;
60032;SDS011;45905;50.570;10.428;2024-01-27T04:41:32;0.80;;;0.60;;
60032;SDS011;45905;50.570;10.428;2024-01-27T04:44:00;1.27;;;0.80;;
60032;SDS011;45905;50.570;10.428;2024-01-27T04:46:28;0.90;;;0.80;;
60032;SDS011;45905;50.570;10.428;2024-01-27T04:48:55;0.70;;;0.50;;
60032;SDS011;45905;50.570;10.428;2024-01-27T04:51:23;1.53;;;1.17;;
60032;SDS011;45905;50.570;10.428;2024-01-27T04:53:51;1.73;;;1.50;;
60032;SDS011;45905;50.570;10.428;2024-01-27T04:56:19;0.77;;;0.60;;
60032;SDS011;45905;50.570;10.428;2024-01-27T04:58:46;2.03;;;1.83;;
60032;SDS011;45905;50.570;10.428;2024-01-27T05:01:14;0.80;;;0.80;;
60032;SDS011;45905;50.570;10.428;2024-01-27T05:03:41;1.33;;;0.50;;
60032;SDS011;45905;50.570;10.428;2024-01-27T05:06:09;1.13;;;0.80;;
60032;SDS011;45905;50.570;10.428;2024-01-27T05:08:38;5.17;;;2.33;;
60032;SDS011;45905;50.570;10.428;2024-01-27T05:11:06;10.23;;;1.97;;
60032;SDS011;45905;50.570;10.428;2024-01-27T05:13:34;1.63;;;1.53;;
60032;SDS011;45905;50.570;10.428;2024-01-27T05:16:01;0.80;;;0.60;;
60032;SDS011;45905;50.570;10.428;2024-01-27T05:18:29;1.70;;;0.87;;
60032;SDS011;45905;50.570;10.428;2024-01-27T05:20:57;0.80;;;0.60;;
60032;SDS011;45905;50.570;10.428;2024-01-27T05:23:24;0.70;;;0.67;;
60032;SDS011;45905;50.570;10.428;2024-01-27T05:25:52;0.60;;;0.40;;
60032;SDS011;45905;50.570;10.428;2024-01-27T05:28:21;0.70;;;0.67;;
60032;SDS011;45905;50.570;10.428;2024-01-27T05:30:49;1.17;;;0.97;;
60032;SDS011;45905;50.570;10.428;2024-01-27T05:33:17;12.73;;;1.60;;
60032;SDS011;45905;50.570;10.428;2024-01-27T05:35:45;0.70;;;0.50;;
60032;SDS011;45905;50.570;10.428;2024-01-27T05:38:12;1.53;;;1.17;;
60032;SDS011;45905;50.570;10.428;2024-01-27T05:40:40;1.50;;;1.40;;
60032;SDS011;45905;50.570;10.428;2024-01-27T05:43:08;0.70;;;0.60;;
60032;SDS011;45905;50.570;10.428;2024-01-27T05:45:35;0.93;;;0.93;;
60032;SDS011;45905;50.570;10.428;2024-01-27T05:48:03;5.03;;;2.87;;
60032;SDS011;45905;50.570;10.428;2024-01-27T05:50:31;4.23;;;3.80;;
60032;SDS011;45905;50.570;10.428;2024-01-27T05:53:00;1.33;;;1.23;;
60032;SDS011;45905;50.570;10.428;2024-01-27T05:55:28;0.73;;;0.70;;
60032;SDS011;45905;50.570;10.428;2024-01-27T05:57:56;0.93;;;0.93;;
60032;SDS011;45905;50.570;10.428;2024-01-27T06:00:23;1.13;;;1.03;;
60032;SDS011;45905;50.570;10.428;2024-01-27T06:02:51;0.70;;;0.50;;
60032;SDS011;45905;50.570;10.428;2024-01-27T06:05:19;0.67;;;0.50;;
60032;SDS011;45905;50.570;10.428;2024-01-27T06:07:47;0.80;;;0.70;;
60032;SDS011;45905;50.570;10.428;2024-01-27T06:10:15;1.30;;;0.80;;
60032;SDS011;45905;50.570;10.428;2024-01-27T06:12:44;0.70;;;0.47;;
60032;SDS011;45905;50.570;10.428;2024-01-27T06:15:12;8.00;;;1.63;;
60032;SDS011;45905;50.570;10.428;2024-01-27T06:17:42;0.97;;;0.90;;
60032;SDS011;45905;50.570;10.428;2024-01-27T06:20:09;1.63;;;1.50;;
60032;SDS011;45905;50.570;10.428;2024-01-27T06:22:38;0.90;;;0.90;;
60032;SDS011;45905;50.570;10.428;2024-01-27T06:25:07;1.70;;;1.53;;
60032;SDS011;45905;50.570;10.428;2024-01-27T06:27:35;2.10;;;1.90;;
60032;SDS011;45905;50.570;10.428;2024-01-27T06:30:08;0.63;;;0.50;;
60032;SDS011;45905;50.570;10.428;2024-01-27T06:32:37;0.90;;;0.80;;
60032;SDS011;45905;50.570;10.428;2024-01-27T06:35:04;0.70;;;0.50;;
60032;SDS011;45905;50.570;10.428;2024-01-27T06:37:32;0.60;;;0.40;;
60032;SDS011;45905;50.570;10.428;2024-01-27T06:40:00;0.70;;;0.60;;
60032;SDS011;45905;50.570;10.428;2024-01-27T06:42:28;1.20;;;0.77;;
60032;SDS011;45905;50.570;10.428;2024-01-27T06:44:55;1.80;;;1.70;;
60032;SDS011;45905;50.570;10.428;2024-01-27T06:47:23;0.80;;;0.60;;
60032;SDS011;45905;50.570;10.428;2024-01-27T06:49:51;1.10;;;0.90;;
60032;SDS011;45905;50.570;10.428;2024-01-27T06:52:19;0.83;;;0.77;;
60032;SDS011;45905;50.570;10.428;2024-01-27T06:54:47;1.17;;;1.07;;
60032;SDS011;45905;50.570;10.428;2024-01-27T06:57:18;0.90;;;0.90;;
60032;SDS011;45905;50.570;10.428;2024-01-27T06:59:47;0.70;;;0.70;;
60032;SDS011;45905;50.570;10.428;2024-01-27T07:02:23;1.20;;;1.10;;
60032;SDS011;45905;50.570;10.428;2024-01-27T07:04:55;52.03;;;2.90;;
60032;SDS011;45905;50.570;10.428;2024-01-27T07:07:26;2.63;;;1.43;;
60032;SDS011;45905;50.570;10.428;2024-01-27T07:09:55;3.67;;;1.30;;
60032;SDS011;45905;50.570;10.428;2024-01-27T07:12:24;1.83;;;1.73;;
60032;SDS011;45905;50.570;10.428;2024-01-27T07:14:52;2.93;;;2.83;;
60032;SDS011;45905;50.570;10.428;2024-01-27T07:17:23;2.50;;;2.40;;
60032;SDS011;45905;50.570;10.428;2024-01-27T07:19:52;1.80;;;1.70;;
60032;SDS011;45905;50.570;10.428;2024-01-27T07:22:22;1.87;;;1.77;;
60032;SDS011;45905;50.570;10.428;2024-01-27T07:24:53;1.00;;;1.00;;
60032;SDS011;45905;50.570;10.428;2024-01-27T07:27:22;1.57;;;1.47;;
60032;SDS011;45905;50.570;10.428;2024-01-27T07:29:50;34.30;;;4.00;;
60032;SDS011;45905;50.570;10.428;2024-01-27T07:32:18;24.63;;;3.27;;
60032;SDS011;45905;50.570;10.428;2024-01-27T07:34:45;2.90;;;2.80;;
60032;SDS011;45905;50.570;10.428;2024-01-27T07:37:14;3.33;;;3.03;;
60032;SDS011;45905;50.570;10.428;2024-01-27T07:39:42;1.20;;;1.20;;
60032;SDS011;45905;50.570;10.428;2024-01-27T07:42:10;3.30;;;3.10;;
60032;SDS011;45905;50.570;10.428;2024-01-27T07:44:39;2.03;;;1.83;;
60032;SDS011;45905;50.570;10.428;2024-01-27T07:47:07;1.10;;;1.10;;
60032;SDS011;45905;50.570;10.428;2024-01-27T07:49:35;2.87;;;2.63;;
60032;SDS011;45905;50.570;10.428;2024-01-27T07:52:03;2.43;;;2.27;;
60032;SDS011;45905;50.570;10.428;2024-01-27T07:54:32;2.20;;;2.10;;
60032;SDS011;45905;50.570;10.428;2024-01-27T07:57:05;3.87;;;3.57;;
60032;SDS011;45905;50.570;10.428;2024-01-27T07:59:33;2.40;;;1.73;;
60032;SDS011;45905;50.570;10.428;2024-01-27T08:02:01;6.10;;;1.73;;
60032;SDS011;45905;50.570;10.428;2024-01-27T08:04:29;7.00;;;3.73;;
60032;SDS011;45905;50.570;10.428;2024-01-27T08:06:57;2.50;;;2.40;;
60032;SDS011;45905;50.570;10.428;2024-01-27T08:09:25;2.70;;;2.60;;
60032;SDS011;45905;50.570;10.428;2024-01-27T08:11:53;4.17;;;2.97;;
60032;SDS011;45905;50.570;10.428;2024-01-27T08:14:20;2.73;;;2.63;;
60032;SDS011;45905;50.570;10.428;2024-01-27T08:16:49;4.47;;;4.17;;
60032;SDS011;45905;50.570;10.428;2024-01-27T08:19:16;1.93;;;1.83;;
60032;SDS011;45905;50.570;10.428;2024-01-27T08:21:47;3.17;;;2.97;;
60032;SDS011;45905;50.570;10.428;2024-01-27T08:24:15;4.43;;;4.23;;
60032;SDS011;45905;50.570;10.428;2024-01-27T08:26:43;3.67;;;1.80;;
60032;SDS011;45905;50.570;10.428;2024-01-27T08:29:13;4.57;;;4.27;;
60032;SDS011;45905;50.570;10.428;2024-01-27T08:31:40;4.70;;;4.30;;
60032;SDS011;45905;50.570;10.428;2024-01-27T08:34:11;3.33;;;3.03;;
60032;SDS011;45905;50.570;10.428;2024-01-27T08:36:40;6.17;;;5.67;;
60032;SDS011;45905;50.570;10.428;2024-01-27T08:39:08;3.83;;;3.60;;
60032;SDS011;45905;50.570;10.428;2024-01-27T08:41:38;3.80;;;3.60;;
60032;SDS011;45905;50.570;10.428;2024-01-27T08:44:09;4.37;;;4.07;;
60032;SDS011;45905;50.570;10.428;2024-01-27T08:46:36;1.73;;;1.63;;
60032;SDS011;45905;50.570;10.428;2024-01-27T08:49:04;6.03;;;5.53;;
60032;SDS011;45905;50.570;10.428;2024-01-27T08:51:32;6.60;;;6.10;;
60032;SDS011;45905;50.570;10.428;2024-01-27T08:54:01;4.97;;;4.57;;
60032;SDS011;45905;50.570;10.428;2024-01-27T08:56:29;6.43;;;5.87;;
60032;SDS011;45905;50.570;10.428;2024-01-27T08:58:57;4.50;;;3.87;;
60032;SDS011;45905;50.570;10.428;2024-01-27T09:01:25;8.00;;;5.37;;
60032;SDS011;45905;50.570;10.428;2024-01-27T09:03:52;8.33;;;7.17;;
60032;SDS011;45905;50.570;10.428;2024-01-27T09:06:20;13.90;;;5.27;;
60032;SDS011;45905;50.570;10.428;2024-01-27T09:08:48;6.90;;;6.20;;
60032;SDS011;45905;50.570;10.428;2024-01-27T09:11:16;4.47;;;4.10;;
60032;SDS011;45905;50.570;10.428;2024-01-27T09:13:44;5.47;;;4.97;;
60032;SDS011;45905;50.570;10.428;2024-01-27T09:16:11;6.60;;;5.90;;
60032;SDS011;45905;50.570;10.428;2024-01-27T09:18:40;4.87;;;4.37;;
60032;SDS011;45905;50.570;10.428;2024-01-27T09:21:08;11.43;;;8.33;;
60032;SDS011;45905;50.570;10.428;2024-01-27T09:23:36;7.00;;;2.93;;
60032;SDS011;45905;50.570;10.428;2024-01-27T09:26:03;3.00;;;2.80;;
60032;SDS011;45905;50.570;10.428;2024-01-27T09:28:31;4.93;;;4.47;;
60032;SDS011;45905;50.570;10.428;2024-01-27T09:30:59;5.70;;;5.20;;
60032;SDS011;45905;50.570;10.428;2024-01-27T09:33:27;3.67;;;3.37;;
60032;SDS011;45905;50.570;10.428;2024-01-27T09:35:56;5.83;;;5.43;;
60032;SDS011;45905;50.570;10.428;2024-01-27T09:38:24;4.77;;;4.37;;
60032;SDS011;45905;50.570;10.428;2024-01-27T09:40:52;4.00;;;3.70;;
60032;SDS011;45905;50.570;10.428;2024-01-27T09:43:19;5.27;;;4.87;;
60032;SDS011;45905;50.570;10.428;2024-01-27T09:45:51;3.13;;;2.83;;
60032;SDS011;45905;50.570;10.428;2024-01-27T09:48:23;3.27;;;2.97;;
60032;SDS011;45905;50.570;10.428;2024-01-27T09:50:51;8.10;;;5.97;;
60032;SDS011;45905;50.570;10.428;2024-01-27T09:53:20;4.37;;;4.00;;
60032;SDS011;45905;50.570;10.428;2024-01-27T09:55:48;8.27;;;3.87;;
60032;SDS011;45905;50.570;10.428;2024-01-27T09:58:17;5.50;;;5.07;;
60032;SDS011;45905;50.570;10.428;2024-01-27T10:00:45;10.30;;;4.77;;
60032;SDS011;45905;50.570;10.428;2024-01-27T10:03:13;12.83;;;7.03;;
60032;SDS011;45905;50.570;10.428;2024-01-27T10:05:41;5.47;;;5.07;;
60032;SDS011;45905;50.570;10.428;2024-01-27T10:08:10;3.40;;;3.10;;
60032;SDS011;45905;50.570;10.428;2024-01-27T10:10:38;7.10;;;6.40;;
60032;SDS011;45905;50.570;10.428;2024-01-27T10:13:06;11.33;;;4.23;;
60032;SDS011;45905;50.570;10.428;2024-01-27T10:15:34;3.20;;;3.00;;
60032;SDS011;45905;50.570;10.428;2024-01-27T10:18:06;6.03;;;5.43;;
60032;SDS011;45905;50.570;10.428;2024-01-27T10:20:35;5.40;;;5.00;;
60032;SDS011;45905;50.570;10.428;2024-01-27T10:23:09;3.70;;;3.40;;
60032;SDS011;45905;50.570;10.428;2024-01-27T10:25:39;5.73;;;5.23;;
60032;SDS011;45905;50.570;10.428;2024-01-27T10:28:07;5.70;;;4.83;;
60032;SDS011;45905;50.570;10.428;2024-01-27T10:30:35;3.23;;;3.13;;
60032;SDS011;45905;50.570;10.428;2024-01-27T10:33:04;4.50;;;4.20;;
60032;SDS011;45905;50.570;10.428;2024-01-27T10:35:34;3.87;;;3.67;;
60032;SDS011;45905;50.570;10.428;2024-01-27T10:38:05;3.00;;;2.87;;
60032;SDS011;45905;50.570;10.428;2024-01-27T10:40:32;5.60;;;5.37;;
60032;SDS011;45905;50.570;10.428;2024-01-27T10:43:03;2.70;;;2.53;;
60032;SDS011;45905;50.570;10.428;2024-01-27T10:45:34;2.90;;;2.03;;
60032;SDS011;45905;50.570;10.428;2024-01-27T10:48:04;1.93;;;1.83;;
60032;SDS011;45905;50.570;10.428;2024-01-27T10:50:35;12.97;;;1.83;;
60032;SDS011;45905;50.570;10.428;2024-01-27T10:53:44;1.27;;;1.17;;
60032;SDS011;45905;50.570;10.428;2024-01-27T10:56:06;1.77;;;1.00;;
60032;SDS011;45905;50.570;10.428;2024-01-27T10:58:36;2.00;;;1.90;;
60032;SDS011;45905;50.570;10.428;2024-01-27T11:01:10;1.00;;;0.90;;
60032;SDS011;45905;50.570;10.428;2024-01-27T11:03:40;0.90;;;0.87;;
60032;SDS011;45905;50.570;10.428;2024-01-27T11:06:09;13.23;;;1.07;;
60032;SDS011;45905;50.570;10.428;2024-01-27T11:08:40;1.00;;;1.00;;
60032;SDS011;45905;50.570;10.428;2024-01-27T11:11:10;2.20;;;2.10;;
60032;SDS011;45905;50.570;10.428;2024-01-27T11:13:38;0.90;;;0.90;;
60032;SDS011;45905;50.570;10.428;2024-01-27T11:16:12;2.00;;;0.80;;
60032;SDS011;45905;50.570;10.428;2024-01-27T11:18:45;1.37;;;0.83;;
60032;SDS011;45905;50.570;10.428;2024-01-27T11:21:15;4.50;;;2.40;;
60032;SDS011;45905;50.570;10.428;2024-01-27T11:23:44;1.67;;;1.57;;
60032;SDS011;45905;50.570;10.428;2024-01-27T11:26:17;2.50;;;2.40;;
60032;SDS011;45905;50.570;10.428;2024-01-27T11:28:50;2.80;;;2.60;;
60032;SDS011;45905;50.570;10.428;2024-01-27T11:31:18;1.63;;;1.53;;
60032;SDS011;45905;50.570;10.428;2024-01-27T11:33:47;1.10;;;1.10;;
60032;SDS011;45905;50.570;10.428;2024-01-27T11:36:21;6.97;;;3.90;;
60032;SDS011;45905;50.570;10.428;2024-01-27T11:38:51;2.77;;;2.67;;
60032;SDS011;45905;50.570;10.428;2024-01-27T11:41:25;2.50;;;2.30;;
60032;SDS011;45905;50.570;10.428;2024-01-27T11:43:57;2.23;;;2.13;;
60032;SDS011;45905;50.570;10.428;2024-01-27T11:46:29;6.63;;;4.43;;
60032;SDS011;45905;50.570;10.428;2024-01-27T11:48:58;16.17;;;3.07;;
60032;SDS011;45905;50.570;10.428;2024-01-27T11:51:25;5.20;;;3.80;;
60032;SDS011;45905;50.570;10.428;2024-01-27T11:53:55;7.70;;;3.37;;
60032;SDS011;45905;50.570;10.428;2024-01-27T11:56:23;4.47;;;4.27;;
60032;SDS011;45905;50.570;10.428;2024-01-27T11:58:52;5.60;;;2.50;;
60032;SDS011;45905;50.570;10.428;2024-01-27T12:01:20;2.90;;;2.80;;
60032;SDS011;45905;50.570;10.428;2024-01-27T12:03:48;2.97;;;2.87;;
60032;SDS011;45905;50.570;10.428;2024-01-27T12:06:16;3.10;;;2.90;;
60032;SDS011;45905;50.570;10.428;2024-01-27T12:08:44;1.63;;;1.53;;
60032;SDS011;45905;50.570;10.428;2024-01-27T12:11:16;11.37;;;1.50;;
60032;SDS011;45905;50.570;10.428;2024-01-27T12:13:50;2.17;;;0.77;;
60032;SDS011;45905;50.570;10.428;2024-01-27T12:16:21;6.17;;;2.97;;
60032;SDS011;45905;50.570;10.428;2024-01-27T12:18:52;2.70;;;1.43;;
60032;SDS011;45905;50.570;10.428;2024-01-27T12:21:23;3.73;;;2.20;;
60032;SDS011;45905;50.570;10.428;2024-01-27T12:23:51;1.47;;;1.17;;
60032;SDS011;45905;50.570;10.428;2024-01-27T12:26:21;3.27;;;1.47;;
60032;SDS011;45905;50.570;10.428;2024-01-27T12:28:53;1.00;;;0.90;;
60032;SDS011;45905;50.570;10.428;2024-01-27T12:31:25;2.33;;;2.13;;
60032;SDS011;45905;50.570;10.428;2024-01-27T12:33:54;1.20;;;0.80;;
60032;SDS011;45905;50.570;10.428;2024-01-27T12:36:26;1.07;;;0.73;;
60032;SDS011;45905;50.570;10.428;2024-01-27T12:39:00;2.23;;;1.27;;
60032;SDS011;45905;50.570;10.428;2024-01-27T12:41:32;2.83;;;1.40;;
60032;SDS011;45905;50.570;10.428;2024-01-27T12:44:00;3.60;;;1.63;;
60032;SDS011;45905;50.570;10.428;2024-01-27T12:46:28;1.43;;;0.97;;
60032;SDS011;45905;50.570;10.428;2024-01-27T12:48:56;2.20;;;0.90;;
60032;SDS011;45905;50.570;10.428;2024-01-27T12:51:24;0.90;;;0.80;;
60032;SDS011;45905;50.570;10.428;2024-01-27T12:53:52;3.60;;;1.40;;
60032;SDS011;45905;50.570;10.428;2024-01-27T12:56:20;3.03;;;0.97;;
60032;SDS011;45905;50.570;10.428;2024-01-27T12:58:48;5.70;;;0.60;;
60032;SDS011;45905;50.570;10.428;2024-01-27T13:01:17;0.70;;;0.50;;
60032;SDS011;45905;50.570;10.428;2024-01-27T13:03:45;9.70;;;1.07;;
60032;SDS011;45905;50.570;10.428;2024-01-27T13:06:17;0.70;;;0.40;;
60032;SDS011;45905;50.570;10.428;2024-01-27T13:08:45;0.90;;;0.70;;
60032;SDS011;45905;50.570;10.428;2024-01-27T13:11:14;2.07;;;1.00;;
60032;SDS011;45905;50.570;10.428;2024-01-27T13:13:42;1.83;;;0.90;;
60032;SDS011;45905;50.570;10.428;2024-01-27T13:16:12;1.40;;;1.20;;
60032;SDS011;45905;50.570;10.428;2024-01-27T13:18:41;1.00;;;0.70;;
60032;SDS011;45905;50.570;10.428;2024-01-27T13:21:09;0.90;;;0.90;;
60032;SDS011;45905;50.570;10.428;2024-01-27T13:23:37;0.90;;;0.90;;
60032;SDS011;45905;50.570;10.428;2024-01-27T13:26:05;1.40;;;0.80;;
60032;SDS011;45905;50.570;10.428;2024-01-27T13:28:45;7.23;;;1.00;;
60032;SDS011;45905;50.570;10.428;2024-01-27T13:31:16;16.13;;;1.97;;
60032;SDS011;45905;50.570;10.428;2024-01-27T13:33:45;2.60;;;0.97;;
60032;SDS011;45905;50.570;10.428;2024-01-27T13:36:15;4.00;;;1.60;;
60032;SDS011;45905;50.570;10.428;2024-01-27T13:38:43;6.93;;;2.20;;
60032;SDS011;45905;50.570;10.428;2024-01-27T13:41:12;0.73;;;0.47;;
60032;SDS011;45905;50.570;10.428;2024-01-27T13:43:43;1.07;;;0.93;;
60032;SDS011;45905;50.570;10.428;2024-01-27T13:46:12;1.27;;;0.93;;
60032;SDS011;45905;50.570;10.428;2024-01-27T13:48:40;3.13;;;1.03;;
60032;SDS011;45905;50.570;10.428;2024-01-27T13:51:12;3.00;;;0.93;;
60032;SDS011;45905;50.570;10.428;2024-01-27T13:53:40;4.20;;;1.43;;
60032;SDS011;45905;50.570;10.428;2024-01-27T13:56:13;1.67;;;1.17;;
60032;SDS011;45905;50.570;10.428;2024-01-27T13:58:42;0.70;;;0.60;;
60032;SDS011;45905;50.570;10.428;2024-01-27T14:01:10;1.00;;;0.83;;
60032;SDS011;45905;50.570;10.428;2024-01-27T14:03:38;1.00;;;0.80;;
60032;SDS011;45905;50.570;10.428;2024-01-27T14:06:09;1.80;;;1.17;;
60032;SDS011;45905;50.570;10.428;2024-01-27T14:08:40;0.77;;;0.60;;
60032;SDS011;45905;50.570;10.428;2024-01-27T14:11:08;0.90;;;0.70;;
60032;SDS011;45905;50.570;10.428;2024-01-27T14:13:36;2.20;;;1.13;;
60032;SDS011;45905;50.570;10.428;2024-01-27T14:16:04;1.67;;;0.80;;
60032;SDS011;45905;50.570;10.428;2024-01-27T14:18:32;5.17;;;1.60;;
60032;SDS011;45905;50.570;10.428;2024-01-27T14:21:00;2.90;;;1.20;;
60032;SDS011;45905;50.570;10.428;2024-01-27T14:23:28;1.10;;;0.90;;
60032;SDS011;45905;50.570;10.428;2024-01-27T14:25:55;15.67;;;1.37;;
60032;SDS011;45905;50.570;10.428;2024-01-27T14:28:24;1.33;;;1.10;;
60032;SDS011;45905;50.570;10.428;2024-01-27T14:30:52;6.63;;;1.07;;
60032;SDS011;45905;50.570;10.428;2024-01-27T14:33:20;0.77;;;0.60;;
60032;SDS011;45905;50.570;10.428;2024-01-27T14:35:49;1.10;;;0.93;;
60032;SDS011;45905;50.570;10.428;2024-01-27T14:38:17;3.53;;;1.57;;
60032;SDS011;45905;50.570;10.428;2024-01-27T14:40:47;11.07;;;0.97;;